Mission Valley North (654, 13840) Station Data

Red Flag Warning: No
Fire Weather Zone: 243
SDGE Region: Beach Cities
Lat/Lon: 32.781/-117.138

Observations

Time Wind Speed/Gust Temp(F) RH Fuel Moist Fuel Temp(F) Dewpt(F) Tmax(F) Tmin(F) Accum Precip 10-min Precip SL Press(mb)
6/27 5:10pm 234 8 G 12 75° 58% 11% 81.7° 60° 80.6° 62.3° - - 1009.0
6/27 5:00pm 254 7 G 11 76° 59% 11.2% 83.1° 60° 80.6° 62.3° - - 1009.0
6/27 4:50pm 252 8 G 11 76° 59% 11.1% 82.9° 61° 80.6° 62.3° - - 1009.0
6/27 4:40pm 240 8 G 11 76° 57% 11.2% 83.2° 60° 80.6° 62.3° - - 1009.0
6/27 4:30pm 243 7 G 10 76° 55% 11.1% 83.5° 59° 80.6° 62.3° - - 1009.0
6/27 4:20pm 243 7 G 11 77° 55% 11.2% 84.1° 59° 80.6° 62.3° - - 1009.0
6/27 4:10pm 242 7 G 11 77° 54% 11.2% 84.9° 59° 80.6° 62.3° - - 1010.0
6/27 4:00pm 243 8 G 12 77° 53% 11.4% 85° 58° 80.6° 62.3° - - 1010.0
6/27 3:50pm 239 8 G 12 77° 53% 11.3% 84.5° 58° 80.6° 62.3° - - 1010.0
6/27 3:40pm 251 7 G 11 77° 54% 11.4% 84.7° 59° 80.6° 62.3° - - 1010.0
6/27 3:30pm 251 7 G 11 76° 56% 11.5% 84.6° 60° 80.6° 62.3° - - 1010.0
6/27 3:20pm 253 7 G 12 76° 58% 11.5% 85° 60° 80.6° 62.3° - - 1010.0
6/27 3:10pm 235 8 G 11 76° 59% 11.6% 84.9° 61° 80.6° 62.3° - - 1010.0
6/27 3:00pm 240 8 G 13 77° 59% 11.7% 85.2° 61° 80.6° 62.3° - - 1010.0
6/27 2:50pm 244 8 G 13 76° 60% 11.8% 85.3° 61° 80.6° 62.3° - - 1010.0
6/27 2:40pm 250 9 G 13 76° 61% 11.8% 84.8° 61° 80.6° 62.3° - - 1010.0
6/27 2:30pm 251 10 G 14 76° 61% 11.8% 84.7° 62° 80.6° 62.3° - - 1010.0
6/27 2:20pm 247 9 G 16 77° 60% 11.9% 85.6° 62° 80.6° 62.3° - - 1010.0
6/27 2:10pm 259 9 G 12 77° 60% 12% 86.1° 62° 80.6° 62.3° - - 1010.0
6/27 2:00pm 257 9 G 14 77° 60% 11.9% 86.4° 62° 80.6° 62.3° - - 1010.0
6/27 1:50pm 244 9 G 14 78° 58% 11.9% 87.7° 63° 80.6° 62.3° - - 1010.0
6/27 1:40pm 256 8 G 11 78° 59% 12% 89.6° 62° 80.6° 62.3° - - 1010.0
6/27 1:30pm 265 8 G 13 77° 60% 11.9% 90.4° 62° 80.6° 62.3° - - 1010.0
6/27 1:20pm 260 9 G 13 78° 58% 11.9% 93.2° 62° 80.6° 62.3° - - 1010.0
6/27 1:10pm 262 8 G 12 78° 58% 12% 97.8° 62° 80.6° 62.3° - - 1010.0
6/27 1:00pm 263 6 G 11 79° 57% 12% 98.7° 63° 80.6° 62.3° - - 1010.0
6/27 12:50pm 248 8 G 14 78° 60% 12.1% 97.6° 62° 80.6° 62.3° - - 1010.0
6/27 12:40pm 235 9 G 14 77° 60% 12.1% 94.4° 63° 80.6° 62.3° - - 1010.0
6/27 12:30pm 256 9 G 14 77° 60% 12% 88.4° 62° 80.6° 62.3° - - 1010.0
6/27 12:20pm 248 9 G 14 78° 58% 12.1% 95.1° 62° 80.6° 62.3° - - 1010.0
6/27 12:10pm 246 9 G 13 78° 57% 12.2% 90.5° 62° 80.6° 62.3° - - 1010.0
6/27 12:00pm 254 8 G 12 79° 57% 12.3% 89.7° 62° 80.6° 62.3° - - 1010.0
6/27 11:50am 255 7 G 11 79° 56% 12.4% 88.9° 62° 80.6° 62.3° - - 1010.0
6/27 11:40am 244 7 G 12 79° 56% 12.5% 90.1° 62° 80.6° 62.3° - - 1010.0
6/27 11:30am 238 7 G 12 79° 55% 12.6% 92.2° 62° 80.6° 62.3° - - 1010.0
6/27 11:20am 255 6 G 10 79° 56% 12.7% 92.5° 62° 80.6° 62.3° - - 1010.0
6/27 11:10am 258 7 G 11 79° 57% 12.8% 91.6° 63° 80.6° 62.3° - - 1011.0
6/27 11:00am 263 6 G 10 79° 58% 12.9% 91.1° 63° 80.6° 62.3° - - 1011.0
6/27 10:50am 240 7 G 11 79° 58% 13% 90.6° 63° 80.6° 62.3° - - 1010.0
6/27 10:40am 254 6 G 10 79° 58% 13.1% 89.1° 63° 80.6° 62.3° - - 1010.0
6/27 10:20am 240 5 G 8 79° 58% 13.3% 88.7° 62° 79.2° 62.3° - - 1010.0
6/27 10:10am 234 5 G 8 78° 60% 13.4% 86.9° 63° 79° 62.3° - - 1010.0
6/27 10:00am 231 5 G 7 77° 62% 13.5% 86.4° 63° 78.5° 62.3° - - 1010.0
6/27 9:50am 245 6 G 8 76° 63% 13.6% 85.2° 63° 77.1° 62.3° - - 1010.0
6/27 9:40am 250 6 G 8 76° 64% 13.7% 84.7° 63° 76.8° 62.3° - - 1010.0
6/27 9:30am 246 6 G 9 76° 66% 13.7% 84.5° 64° 76.7° 62.3° - - 1010.0
6/27 9:20am 240 6 G 9 76° 66% 13.9% 84.2° 64° 76.7° 62.3° - - 1010.0
6/27 9:10am 228 5 G 8 76° 66% 14% 84.9° 63° 76.7° 62.3° - - 1010.0
6/27 9:00am 249 4 G 7 76° 60% 13.8% 83.9° 61° 76.6° 62.3° - - 1010.0
6/27 8:50am 252 3 G 5 75° 62% 13.8% 82.7° 61° 75.8° 62.3° - - 1010.0
6/27 8:40am 243 3 G 6 74° 61% 13.9% 80.2° 60° 74.7° 62.3° - - 1010.0
6/27 8:30am 236 3 G 5 74° 62% 14.1% 82.3° 60° 74.7° 62.3° - - 1010.0
6/27 8:20am 225 3 G 4 73° 63% 14.3% 86.2° 59° 73.8° 62.3° - - 1010.0
6/27 8:10am 207 2 G 4 72° 64% 14.4% 86.1° 59° 72.8° 62.3° - - 1010.0
6/27 8:00am 196 2 G 3 71° 65% 14.6% 87.1° 59° 71.8° 62.3° - - 1010.0
6/27 7:50am 196 1 G 2 70° 66% 15% 86.5° 58° 71.2° 62.3° - - 1010.0
6/27 7:40am 203 1 G 3 69° 68% 15.1% 85° 58° 70.7° 62.3° - - 1010.0
6/27 7:30am 205 1 G 2 68° 69% 15.3% 83.9° 58° 70.7° 62.3° - - 1010.0
6/27 7:20am 163 1 G 2 68° 70% 15.5% 82.6° 57° 70.7° 62.3° - - 1010.0
6/27 7:10am 191 0 G 2 67° 69% 15.8% 81.9° 57° 70.7° 62.3° - - 1010.0
6/27 7:00am 64 1 G 2 66° 70% 16.2% 78.02° 56° 70.7° 62.3° - - 1010.0
6/27 6:50am 63 2 G 3 65° 71% 16.2% 72.9° 55° 70.7° 62.3° - - 1010.0
6/27 6:40am 79 2 G 4 65° 72% 16.6% 69.19° 56° 70.7° 62.3° - - 1010.0
6/27 6:30am 54 2 G 4 64° 73% 16.6% 64.56° 56° 70.7° 62.3° - - 1010.0
6/27 6:20am 50 2 G 3 64° 79% 16.8% 64.34° 57° 70.7° 62.3° - - 1010.0
6/27 6:10am 46 1 G 2 63° 82% 16.7% 61.26° 58° 70.7° 62.3° - - 1010.0
6/27 6:00am 52 1 G 2 64° 83% 16.6% 61.44° 58° 70.7° 62.3° - - 1010.0
6/27 5:50am 129 0 G 2 64° 82% 16.7% 61.11° 58° 70.7° 62.3° - - 1010.0
6/27 5:40am 251 1 G 2 64° 83% 16.7% 60.64° 58° 70.7° 62.3° - - 1010.0
6/27 5:30am 44 1 G 2 64° 82% 16.6% 60.64° 58° 70.7° 62.3° - - 1010.0
6/27 5:20am 29 1 G 2 63° 80% 16.5% 60.66° 57° 70.7° 62.3° - - 1010.0
6/27 5:10am 54 1 G 2 63° 83% 16.5% 60.85° 58° 70.7° 62.3° - - 1010.0
6/27 5:00am 14 1 G 2 64° 86% 16.5% 61.09° 59° 70.7° 62.3° - - 1010.0
6/27 4:50am 31 2 G 2 63° 86% 16.5% 61.18° 59° 70.7° 62.3° - - 1010.0
6/27 4:40am 92 1 G 3 65° 88% 16.5% 61.81° 61° 70.7° 63.2° - - 1010.0
6/27 4:30am 302 1 G 3 65° 88% 16.4% 62.03° 62° 70.7° 63.2° - - 1010.0
6/27 4:20am 305 1 G 2 65° 82% 16.2% 61.54° 59° 70.7° 63.2° - - 1010.0
6/27 4:10am 202 1 G 2 65° 77% 16.2% 61.03° 57° 70.7° 63.2° - - 1010.0
6/27 4:00am 199 1 G 3 64° 78% 16.2% 61.38° 57° 70.7° 63.2° - - 1010.0
6/27 3:50am 27 0 G 2 64° 80% 16.2% 61.46° 57° 70.7° 63.2° - - 1010.0
6/27 3:40am 75 2 G 3 64° 85% 16.2% 61.77° 59° 70.7° 63.5° - - 1009.0
6/27 3:30am 77 1 G 3 65° 89% 16.1% 62.46° 61° 70.7° 64° - - 1009.0
6/27 3:20am 294 0 G 0 65° 90% 16% 62.52° 62° 70.7° 64.3° - - 1010.0
6/27 3:10am 275 0 G 1 65° 90% 15.9% 62.86° 62° 70.7° 64.9° - - 1010.0
6/27 3:00am 0 0 G 0 65° 89% 15.8% 62.88° 62° 70.7° 65.1° - - 1009.0
6/27 2:50am 285 1 G 1 66° 89% 15.8% 63.42° 62° 70.7° 65.1° - - 1009.0
6/27 2:40am 87 0 G 0 66° 89% 15.6% 63.38° 62° 70.7° 65.3° - - 1009.0
6/27 2:30am 312 0 G 1 66° 89% 15.5% 63.28° 62° 70.7° 65.4° - - 1009.0
6/27 2:20am 299 1 G 2 66° 89% 15.3% 63.82° 63° 70.7° 65.5° - - 1009.0
6/27 2:10am 276 0 G 1 66° 89% 15.3% 63.82° 63° 70.7° 65.7° - - 1010.0
6/27 2:00am 276 1 G 1 66° 89% 15.2% 64.34° 63° 70.7° 65.9° - - 1010.0
6/27 1:50am 279 1 G 3 66° 89% 15.1% 64.08° 63° 70.7° 65.9° - - 1010.0
6/27 1:40am 280 2 G 3 66° 88% 15% 64.46° 63° 70.7° 65.9° - - 1010.0
6/27 1:30am 289 2 G 3 67° 88% 14.9% 64.64° 63° 70.7° 66.2° - - 1010.0
6/27 1:20am 245 2 G 3 67° 87% 14.7% 64.66° 63° 70.7° 66.5° - - 1010.0
6/27 1:10am 201 0 G 2 67° 86% 14.7% 64.7° 63° 70.7° 66.8° - - 1010.0
6/27 1:00am 293 0 G 1 67° 86% 14.6% 65.15° 63° 70.7° 67° - - 1010.0
6/27 12:50am 269 2 G 3 68° 85% 14.5% 65.66° 63° 70.7° 67.3° - - 1010.0
6/27 12:40am 282 3 G 4 69° 83% 14.4% 66.27° 63° 70.7° 67.8° - - 1010.0
6/27 12:30am 287 2 G 3 69° 82% 14.3% 66.85° 64° 70.7° 68.7° - - 1010.0
6/27 12:20am 283 2 G 3 70° 82% 14.2% 67.25° 64° 70.7° 69.2° - - 1011.0
6/27 12:10am 277 2 G 3 70° 78% 14.1% 66.98° 63° 70.7° 69.7° - - 1011.0
6/27 12:00am 321 1 G 3 70° 78% 14.1% 67.12° 63° 84.9° 62.6° - - 1011.0
6/26 11:50pm 66 1 G 2 70° 78% 14% 67.25° 63° 84.9° 62.6° - - 1011.0
6/26 11:40pm 111 0 G 2 70° 81% 13.9% 67.37° 64° 84.9° 62.6° - - 1011.0
6/26 11:30pm 46 1 G 2 70° 81% 13.8% 67.75° 64° 84.9° 62.6° - - 1011.0
6/26 11:20pm 53 1 G 2 70° 82% 13.8% 67.96° 64° 84.9° 62.6° - - 1011.0
6/26 11:10pm 69 2 G 4 70° 83% 13.7% 68.3° 65° 84.9° 62.6° - - 1011.0
6/26 11:00pm 73 1 G 2 69° 85% 13.7% 67.44° 65° 84.9° 62.6° - - 1011.0
6/26 10:50pm 90 0 G 1 69° 86% 13.4% 67.46° 65° 84.9° 62.6° - - 1011.0
6/26 10:40pm 357 0 G 2 69° 85% 13.2% 67.37° 64° 84.9° 62.6° - - 1011.0
6/26 10:30pm 284 2 G 3 69° 85% 13.1% 67.96° 65° 84.9° 62.6° - - 1011.0
6/26 10:20pm 271 1 G 2 69° 84% 13% 68.06° 65° 84.9° 62.6° - - 1011.0
6/26 10:10pm 277 1 G 2 69° 84% 12.9% 68.33° 65° 84.9° 62.6° - - 1011.0
6/26 10:00pm 292 0 G 1 70° 85% 12.7% 68.21° 65° 84.9° 62.6° - - 1011.0
6/26 9:50pm 265 2 G 3 70° 84% 12.6% 68.72° 65° 84.9° 62.6° - - 1011.0
6/26 9:40pm 253 3 G 4 70° 83% 12.4% 69.09° 65° 84.9° 62.6° - - 1011.0
6/26 9:30pm 252 3 G 4 70° 82% 12.3% 69.45° 65° 84.9° 62.6° - - 1011.0
6/26 9:20pm 251 4 G 5 71° 81% 12.2% 69.99° 65° 84.9° 62.6° - - 1011.0
6/26 9:10pm 247 4 G 5 71° 80% 12% 70.31° 65° 84.9° 62.6° - - 1010.0
6/26 9:00pm 248 4 G 5 72° 78% 11.9% 70.89° 65° 84.9° 62.6° - - 1010.0
6/26 8:50pm 248 4 G 5 72° 76% 11.8% 71.27° 64° 84.9° 62.6° - - 1010.0
6/26 8:40pm 259 4 G 5 73° 74% 11.7% 71.86° 64° 84.9° 62.6° - - 1010.0
6/26 8:30pm 246 4 G 6 73° 71% 11.5% 72.46° 63° 84.9° 62.6° - - 1010.0
6/26 8:20pm 249 4 G 6 74° 68% 11.4% 73.33° 63° 84.9° 62.6° - - 1010.0
6/26 8:10pm 250 4 G 6 75° 65% 11.3% 74.14° 63° 84.9° 62.6° - - 1010.0
6/26 8:00pm 257 3 G 5 76° 63% 11.2% 74.85° 62° 84.9° 62.6° - - 1010.0
6/26 7:50pm 264 3 G 5 76° 62% 11.1% 75.87° 62° 84.9° 62.6° - - 1010.0
6/26 7:40pm 258 4 G 5 76° 63% 11% 76.66° 62° 84.9° 62.6° - - 1010.0
6/26 7:30pm 259 5 G 7 76° 63% 11% 77.56° 63° 84.9° 62.6° - - 1010.0
6/26 7:20pm 256 6 G 9 77° 62% 11% 78.54° 63° 84.9° 62.6° - - 1010.0
6/26 7:10pm 245 7 G 9 77° 61% 11% 78.99° 63° 84.9° 62.6° - - 1010.0
6/26 7:00pm 246 7 G 10 78° 58% 11% 80.3° 62° 84.9° 62.6° - - 1010.0
6/26 6:50pm 251 6 G 8 78° 56% 11% 81.8° 61° 84.9° 62.6° - - 1010.0
6/26 6:40pm 248 6 G 9 79° 55% 10.9% 82° 61° 84.9° 62.6° - - 1010.0
6/26 6:30pm 244 6 G 9 79° 54% 10.9% 82.7° 61° 84.9° 62.6° - - 1010.0
6/26 6:20pm 244 6 G 9 79° 52% 10.9% 83° 60° 84.9° 62.6° - - 1010.0
6/26 6:10pm 242 7 G 9 79° 51% 10.9% 83.8° 60° 84.9° 62.6° - - 1010.0
6/26 6:00pm 239 6 G 10 80° 50% 10.9% 84.5° 60° 84.9° 62.6° - - 1010.0
6/26 5:50pm 253 8 G 11 81° 49% 11% 85.4° 60° 84.9° 62.6° - - 1010.0
6/26 5:40pm 254 6 G 9 82° 48% 11% 87° 60° 84.9° 62.6° - - 1010.0
6/26 5:30pm 242 7 G 10 82° 48% 11% 86.8° 60° 84.9° 62.6° - - 1010.0
6/26 5:20pm 239 7 G 10 82° 48% 11% 87.3° 60° 84.9° 62.6° - - 1010.0
6/26 5:10pm 240 7 G 11 82° 49% 11.1% 88.1° 61° 84.9° 62.6° - - 1010.0
6/26 5:00pm 247 7 G 10 81° 51% 11.1% 87.9° 61° 84.9° 62.6° - - 1011.0
6/26 4:50pm 261 7 G 12 81° 53% 11.3% 87.7° 62° 84.9° 62.6° - - 1011.0
6/26 4:40pm 257 8 G 12 82° 53% 11.3% 88.4° 63° 84.9° 62.6° - - 1011.0
6/26 4:30pm 241 8 G 12 83° 54% 11.3% 88.8° 64° 84.9° 62.6° - - 1011.0
6/26 4:20pm 236 7 G 11 83° 54% 11.3% 89.7° 64° 84.9° 62.6° - - 1011.0
6/26 4:10pm 239 7 G 10 82° 53% 11.4% 89.1° 63° 84.9° 62.6° - - 1011.0
6/26 4:00pm 241 8 G 11 81° 54% 11.4% 89.1° 63° 84.9° 62.6° - - 1011.0
6/26 3:50pm 246 8 G 12 81° 54% 11.4% 88.8° 63° 84.9° 62.6° - - 1011.0
6/26 3:40pm 251 7 G 11 83° 51% 11.5% 90.5° 63° 84.9° 62.6° - - 1011.0
6/26 3:30pm 233 7 G 13 83° 50% 11.6% 91.2° 62° 84.9° 62.6° - - 1011.0
6/26 3:20pm 240 7 G 11 82° 50% 11.7% 90.9° 62° 84.9° 62.6° - - 1011.0
6/26 3:10pm 238 8 G 12 82° 53% 11.8% 89.9° 63° 84.9° 62.6° - - 1011.0
6/26 3:00pm 251 8 G 12 82° 54% 11.8% 90.2° 64° 84.9° 62.6° - - 1011.0
6/26 2:50pm 247 8 G 11 82° 55% 11.9% 91.2° 64° 84.9° 62.6° - - 1011.0
6/26 2:40pm 242 8 G 12 82° 54% 12% 90.7° 63° 84.9° 62.6° - - 1011.0
6/26 2:30pm 244 8 G 11 82° 54% 12% 90.5° 63° 84.9° 62.6° - - 1011.0
6/26 2:20pm 249 9 G 12 82° 53% 12.1% 91.3° 63° 84.9° 62.6° - - 1011.0
6/26 2:10pm 245 8 G 11 83° 52% 12.2% 92.3° 64° 84.9° 62.6° - - 1011.0
6/26 2:00pm 242 7 G 12 83° 51% 12.3% 93.6° 63° 84.9° 62.6° - - 1011.0
6/26 1:50pm 231 7 G 11 83° 53% 12.4% 94.1° 64° 83.9° 62.6° - - 1011.0
6/26 1:40pm 240 7 G 10 82° 54% 12.4% 95.5° 64° 82.6° 62.6° - - 1011.0
6/26 1:30pm 247 6 G 10 81° 55% 12.5% 98.5° 64° 82.3° 62.6° - - 1012.0
6/26 1:20pm 240 6 G 10 81° 57% 12.5% 98.8° 64° 82° 62.6° - - 1012.0
6/26 1:10pm 237 7 G 10 79° 59% 12.5% 100.4° 63° 80.3° 62.6° - - 1012.0
6/26 1:00pm 251 7 G 11 79° 59% 12.5% 99.6° 63° 80.3° 62.6° - - 1012.0
6/26 12:50pm 237 6 G 11 79° 58% 12.7% 98.8° 63° 80.3° 62.6° - - 1012.0
6/26 12:40pm 255 7 G 11 78° 59% 12.8% 94.3° 62° 79° 62.6° - - 1012.0
6/26 12:30pm 255 7 G 11 78° 58% 12.7% 89.6° 62° 79° 62.6° - - 1012.0
6/26 12:20pm 251 5 G 9 78° 60% 12.9% 95.3° 62° 78.3° 62.6° - - 1012.0
6/26 12:10pm 245 6 G 9 77° 61% 13% 91.9° 63° 78.1° 62.6° - - 1012.0
6/26 12:00pm 243 5 G 9 76° 63% 13.1% 88.5° 63° 77.6° 62.6° - - 1012.0
6/26 11:50am 248 6 G 9 75° 65% 13.2% 87.1° 63° 77.6° 62.6° - - 1012.0
6/26 11:40am 252 6 G 10 75° 66% 13.3% 87° 63° 77.6° 62.6° - - 1012.0
6/26 11:30am 257 6 G 10 75° 67% 13.4% 87.1° 63° 77.6° 62.6° - - 1012.0
6/26 11:20am 250 5 G 9 74° 68% 13.6% 89.6° 63° 77.6° 62.6° - - 1012.0
6/26 11:10am 233 6 G 10 74° 69% 13.6% 88.1° 63° 77.6° 62.6° - - 1012.0
6/26 11:00am 242 6 G 9 73° 70% 13.7% 87° 63° 77.6° 62.6° - - 1012.0
6/26 10:50am 259 7 G 12 73° 71% 13.8% 84.1° 63° 77.6° 62.6° - - 1012.0
6/26 10:40am 252 7 G 11 74° 70% 13.9% 83.9° 63° 77.6° 62.6° - - 1012.0
6/26 10:30am 248 7 G 11 74° 69% 14% 83.8° 63° 77.6° 62.6° - - 1012.0
6/26 10:20am 247 6 G 10 75° 68% 14% 83.9° 63° 77.6° 62.6° - - 1012.0
6/26 10:10am 252 7 G 10 75° 68% 14% 82.8° 63° 77.6° 62.6° - - 1012.0
6/26 10:00am 258 7 G 11 75° 67% 14.1% 83° 64° 77.6° 62.6° - - 1012.0
6/26 9:50am 263 7 G 11 76° 66% 14.1% 82.7° 64° 77.6° 62.6° - - 1012.0
6/26 9:40am 257 7 G 11 76° 66% 14.3% 83° 64° 77.6° 62.6° - - 1012.0
6/26 9:30am 259 6 G 11 76° 67% 14.3% 82.9° 64° 77.6° 62.6° - - 1012.0
6/26 9:20am 251 7 G 11 76° 67% 14.4% 83.9° 64° 77.6° 62.6° - - 1012.0
6/26 9:10am 246 5 G 8 77° 65% 14.5% 85.1° 64° 77.6° 62.6° - - 1011.0
6/26 9:00am 246 5 G 8 77° 63% 14.6% 84° 63° 77.3° 62.6° - - 1012.0
6/26 8:50am 248 3 G 5 76° 64% 14.6% 82.8° 63° 76.6° 62.6° - - 1011.0
6/26 8:40am 256 3 G 5 75° 67% 14.6% 80.7° 63° 75.6° 62.6° - - 1011.0
6/26 8:30am 248 3 G 5 74° 67% 14.8% 82° 62° 74.9° 62.6° - - 1011.0
6/26 8:20am 256 2 G 4 72° 70% 15% 84.4° 62° 73.8° 62.6° - - 1011.0
6/26 8:10am 259 3 G 5 71° 71% 15% 83.1° 62° 72.2° 62.6° - - 1011.0
6/26 8:00am 241 2 G 5 71° 71% 15.3% 84.9° 61° 71.8° 62.6° - - 1011.0
6/26 7:50am 228 1 G 4 70° 73% 15.6% 84.1° 61° 70.9° 62.6° - - 1011.0
6/26 7:40am 224 2 G 4 69° 75% 15.8% 82.7° 61° 69.9° 62.6° - - 1011.0
6/26 7:30am 227 2 G 4 69° 75% 15.9% 81.2° 60° 69.6° 62.6° - - 1011.0
6/26 7:20am 154 1 G 2 69° 74% 16.2% 82.1° 60° 69.6° 62.6° - - 1010.0
6/26 7:10am 161 1 G 2 69° 74% 16.6% 81.7° 60° 69.4° 62.6° - - 1010.0
6/26 7:00am 164 0 G 1 69° 75% 16.8% 79.25° 60° 69.1° 62.6° - - 1010.0
6/26 6:50am 221 0 G 1 67° 78% 17.2% 75.84° 60° 68.6° 62.6° - - 1010.0
6/26 6:40am 118 1 G 2 66° 81% 17.3% 70.41° 60° 66.7° 62.6° - - 1010.0
6/26 6:30am 219 2 G 4 65° 81% 17.2% 65.99° 59° 66.6° 62.6° - - 1010.0
6/26 6:20am 29 0 G 2 65° 83% 17.5% 65.39° 59° 66.6° 62.6° - - 1010.0
6/26 6:10am 47 1 G 2 64° 84% 17.3% 61.93° 59° 66.6° 62.6° - - 1010.0
6/26 6:00am 63 0 G 2 64° 85% 17.2% 61.42° 59° 66.6° 62.6° - - 1010.0